Time;durP1;ratioP1;P1;durP2;ratioP2;P2;SDS_P1;SDS_P2;PMS_P1;PMS_P2;Temp;Humidity;BMP_temperature;BMP_pressure;BME280_temperature;BME280_humidity;BME280_pressure;Samples;Min_cycle;Max_cycle;Signal;HPM_P1;HPM_P2
2022/08/22 00:00:55;;;;;;;5.57;4.53;;;;;;;-144.22;100.00;60274.75;7503211;23;20378;-64
2022/08/22 00:04:16;;;;;;;5.23;4.70;;;;;;;-144.22;100.00;60274.75;7502622;23;20679;-64
2022/08/22 00:08:06;;;;;;;5.63;4.63;;;;;;;-144.22;100.00;60274.75;7503497;23;20262;-64
2022/08/22 00:11:47;;;;;;;4.60;4.20;;;;;;;-144.22;100.00;60274.75;7499130;23;20213;-64
2022/08/22 00:15:16;;;;;;;5.17;4.67;;;;;;;-144.22;100.00;60274.75;7538494;23;20530;-64
2022/08/22 00:18:53;;;;;;;7.03;5.20;;;;;;;-144.22;100.00;60274.75;7538845;23;20229;-64
2022/08/22 00:22:12;;;;;;;4.60;4.20;;;;;;;-144.22;100.00;60274.75;7538541;23;20218;-64
2022/08/22 00:25:39;;;;;;;5.73;4.23;;;;;;;-144.22;100.00;60274.75;7539632;23;20717;-65
2022/08/22 00:28:48;;;;;;;4.73;4.20;;;;;;;-144.22;100.00;60274.75;7538800;23;20218;-65
2022/08/22 00:32:06;;;;;;;5.20;4.63;;;;;;;-144.22;100.00;60274.75;7514788;23;20696;-65
2022/08/22 00:35:25;;;;;;;5.07;4.57;;;;;;;-144.22;100.00;60274.75;7539067;23;20222;-65
2022/08/22 00:38:33;;;;;;;5.03;4.60;;;;;;;-144.22;100.00;60274.75;7538443;23;20293;-64
2022/08/22 00:41:48;;;;;;;7.50;4.57;;;;;;;-144.22;100.00;60274.75;7539370;23;20300;-64
2022/08/22 00:45:26;;;;;;;5.20;4.80;;;;;;;-144.22;100.00;60274.75;7538314;23;20216;-65
2022/08/22 00:48:51;;;;;;;5.77;4.97;;;;;;;-144.22;100.00;60274.75;7574431;23;20205;-64
2022/08/22 00:52:06;;;;;;;5.30;4.80;;;;;;;-144.22;100.00;60274.75;7614627;23;20236;-65
2022/08/22 00:55:27;;;;;;;7.13;5.23;;;;;;;-144.22;100.00;60274.75;7614334;23;20223;-64
2022/08/22 00:59:17;;;;;;;8.40;4.93;;;;;;;-144.22;100.00;60274.75;7614277;23;20648;-64
2022/08/22 01:02:44;;;;;;;5.33;4.80;;;;;;;-144.22;100.00;60274.75;7616106;23;20213;-64
2022/08/22 01:06:05;;;;;;;6.73;5.50;;;;;;;-144.22;100.00;60274.75;7588607;23;20688;-64
2022/08/22 01:09:19;;;;;;;5.33;4.80;;;;;;;-144.22;100.00;60274.75;7612728;23;20280;-64
2022/08/22 01:12:50;;;;;;;5.47;4.97;;;;;;;-144.22;100.00;60274.75;7614039;23;20618;-64
2022/08/22 01:16:20;;;;;;;5.60;5.10;;;;;;;-144.22;100.00;60274.75;7592290;23;20267;-64
2022/08/22 01:19:58;;;;;;;6.80;4.97;;;;;;;-144.22;100.00;60274.75;7497830;23;20209;-64
2022/08/22 01:23:25;;;;;;;6.50;4.80;;;;;;;-144.22;100.00;60274.75;7613320;23;20593;-63
2022/08/22 01:26:36;;;;;;;4.87;4.43;;;;;;;-144.22;100.00;60274.75;7613186;23;20563;-64
2022/08/22 01:30:10;;;;;;;5.20;4.70;;;;;;;-144.22;100.00;60274.75;7613377;23;20291;-63
2022/08/22 01:33:52;;;;;;;7.20;5.13;;;;;;;-144.22;100.00;60274.75;7613040;23;20530;-63
2022/08/22 01:37:15;;;;;;;6.77;4.70;;;;;;;-144.22;100.00;60274.75;7560638;23;20219;-63
2022/08/22 01:40:51;;;;;;;5.33;4.83;;;;;;;-144.22;100.00;60274.75;7614192;23;20292;-63
2022/08/22 01:44:17;;;;;;;6.80;5.67;;;;;;;-144.22;100.00;60274.75;7614631;23;20665;-63
2022/08/22 01:47:33;;;;;;;5.60;5.00;;;;;;;-144.22;100.00;60274.75;7613627;23;20237;-64
2022/08/22 01:50:48;;;;;;;5.60;4.27;;;;;;;-144.22;100.00;60274.75;7614124;23;20218;-63
2022/08/22 01:54:06;;;;;;;5.00;4.33;;;;;;;-144.22;100.00;60274.75;7613345;23;20681;-63
2022/08/22 01:57:09;;;;;;;4.80;3.50;;;;;;;-144.22;100.00;60274.75;7613800;23;20207;-64
2022/08/22 02:00:16;;;;;;;3.80;3.50;;;;;;;-144.22;100.00;60274.75;7613381;23;20236;-64
2022/08/22 02:03:34;;;;;;;4.67;4.07;;;;;;;-144.22;100.00;60274.75;7613147;23;20212;-65
2022/08/22 02:06:57;;;;;;;4.13;3.83;;;;;;;-144.22;100.00;60274.75;7613598;23;20259;-63
2022/08/22 02:10:17;;;;;;;4.37;4.07;;;;;;;-144.22;100.00;60274.75;7615889;23;20286;-63
2022/08/22 02:13:37;;;;;;;4.20;3.57;;;;;;;-144.22;100.00;60274.75;7616293;23;20293;-64
2022/08/22 02:16:42;;;;;;;4.40;3.60;;;;;;;-144.22;100.00;60274.75;7615810;23;20553;-63
2022/08/22 02:20:18;;;;;;;5.30;3.73;;;;;;;-144.22;100.00;60274.75;7615670;23;20214;-63
2022/08/22 02:23:42;;;;;;;3.50;3.20;;;;;;;-144.22;100.00;60274.75;7616361;23;20213;-63
2022/08/22 02:27:04;;;;;;;4.17;3.67;;;;;;;-144.22;100.00;60274.75;7616071;23;20213;-63
2022/08/22 02:30:11;;;;;;;4.60;3.47;;;;;;;-144.22;100.00;60274.75;7623129;23;20207;-64
2022/08/22 02:33:35;;;;;;;4.00;3.70;;;;;;;-144.22;100.00;60274.75;7617447;23;20212;-63
2022/08/22 02:36:47;;;;;;;4.47;3.40;;;;;;;-144.22;100.00;60274.75;7615614;23;20213;-64
2022/08/22 02:40:07;;;;;;;3.80;3.47;;;;;;;-144.22;100.00;60274.75;7616349;23;20214;-63
2022/08/22 02:43:19;;;;;;;4.63;3.13;;;;;;;-144.22;100.00;60274.75;7615685;23;20632;-64
2022/08/22 02:46:41;;;;;;;2.80;2.60;;;;;;;-144.22;100.00;60274.75;7615489;23;20208;-64
2022/08/22 02:49:57;;;;;;;4.07;3.40;;;;;;;-144.22;100.00;60274.75;7615534;23;20296;-64
2022/08/22 02:53:10;;;;;;;4.60;3.27;;;;;;;-144.22;100.00;60274.75;7615682;23;20606;-64
2022/08/22 02:56:46;;;;;;;3.57;3.27;;;;;;;-144.22;100.00;60274.75;7615965;23;20731;-63
2022/08/22 03:00:23;;;;;;;3.57;3.37;;;;;;;-144.22;100.00;60274.75;7614636;23;20685;-64
2022/08/22 03:03:38;;;;;;;3.70;3.40;;;;;;;-144.22;100.00;60274.75;7614077;23;20245;-63
2022/08/22 03:07:02;;;;;;;4.03;3.03;;;;;;;-144.22;100.00;60274.75;7615094;23;20290;-64
2022/08/22 03:10:29;;;;;;;3.67;3.30;;;;;;;-144.22;100.00;60274.75;7616073;23;20216;-64
2022/08/22 03:13:58;;;;;;;3.67;3.37;;;;;;;-144.22;100.00;60274.75;7615035;23;20213;-63
2022/08/22 03:17:13;;;;;;;3.63;3.33;;;;;;;-144.22;100.00;60274.75;7614505;23;20321;-64
2022/08/22 03:20:39;;;;;;;4.40;4.00;;;;;;;-144.22;100.00;60274.75;7615525;23;20209;-64
2022/08/22 03:23:48;;;;;;;6.10;3.90;;;;;;;-144.22;100.00;60274.75;7614748;23;20249;-63
2022/08/22 03:27:12;;;;;;;3.97;3.63;;;;;;;-144.22;100.00;60274.75;7615782;23;20681;-63
2022/08/22 03:30:56;;;;;;;4.97;4.23;;;;;;;-144.22;100.00;60274.75;7613892;23;20212;-63
2022/08/22 03:34:17;;;;;;;4.17;3.70;;;;;;;-144.22;100.00;60274.75;7589764;23;20232;-63
2022/08/22 03:37:37;;;;;;;3.90;3.60;;;;;;;-144.22;100.00;60274.75;7613678;23;20209;-63
2022/08/22 03:41:02;;;;;;;4.23;3.80;;;;;;;-144.22;100.00;60274.75;7615417;23;20291;-63
2022/08/22 03:44:53;;;;;;;7.87;3.87;;;;;;;-144.22;100.00;60274.75;7614938;23;20222;-63
2022/08/22 03:48:06;;;;;;;4.23;3.80;;;;;;;-144.22;100.00;60274.75;7615542;23;20205;-63
2022/08/22 03:51:11;;;;;;;5.73;4.30;;;;;;;-144.22;100.00;60274.75;7614507;23;20224;-63
2022/08/22 03:54:32;;;;;;;4.37;3.97;;;;;;;-144.22;100.00;60274.75;7615001;23;20188;-63
2022/08/22 03:58:17;;;;;;;4.90;4.00;;;;;;;-144.22;100.00;60274.75;7613146;23;20260;-64
2022/08/22 04:01:41;;;;;;;4.23;3.83;;;;;;;-144.22;100.00;60274.75;7613582;23;20730;-63
2022/08/22 04:05:14;;;;;;;5.23;4.07;;;;;;;-144.22;100.00;60274.75;7464577;23;20650;-63
2022/08/22 04:08:26;;;;;;;4.97;4.20;;;;;;;-144.22;100.00;60274.75;7588424;23;20212;-63
2022/08/22 04:11:46;;;;;;;4.10;3.80;;;;;;;-144.22;100.00;60274.75;7614557;23;20227;-63
2022/08/22 04:15:23;;;;;;;4.03;3.73;;;;;;;-144.22;100.00;60274.75;7614601;23;20669;-63
2022/08/22 04:18:35;;;;;;;4.20;3.90;;;;;;;-144.22;100.00;60274.75;7614672;23;20548;-63
2022/08/22 04:21:52;;;;;;;3.27;3.00;;;;;;;-144.22;100.00;60274.75;7612379;23;20583;-63
2022/08/22 04:25:22;;;;;;;5.33;3.20;;;;;;;-144.22;100.00;60274.75;7615844;23;20544;-63
2022/08/22 04:28:35;;;;;;;4.47;3.57;;;;;;;-144.22;100.00;60274.75;7615446;23;20216;-62
2022/08/22 04:31:51;;;;;;;5.47;3.63;;;;;;;-144.22;100.00;60274.75;7613790;23;20216;-63
2022/08/22 04:35:00;;;;;;;5.07;3.23;;;;;;;-144.22;100.00;60274.75;7613501;23;20244;-63
2022/08/22 04:38:14;;;;;;;4.57;3.57;;;;;;;-144.22;100.00;60274.75;7615185;23;20283;-63
2022/08/22 04:41:42;;;;;;;4.00;3.60;;;;;;;-144.22;100.00;60274.75;7621610;23;20216;-63
2022/08/22 04:45:15;;;;;;;3.97;2.90;;;;;;;-144.22;100.00;60274.75;7610978;23;20240;-62
2022/08/22 04:48:22;;;;;;;3.50;2.77;;;;;;;-144.22;100.00;60274.75;7588443;23;20660;-63
2022/08/22 04:51:51;;;;;;;3.57;3.00;;;;;;;-144.22;100.00;60274.75;7613264;23;20695;-62
2022/08/22 04:55:02;;;;;;;4.23;3.07;;;;;;;-144.22;100.00;60274.75;7607778;23;20263;-63
2022/08/22 04:58:29;;;;;;;3.13;2.50;;;;;;;-144.22;100.00;60274.75;7614536;23;20561;-64
2022/08/22 05:01:43;;;;;;;2.30;2.17;;;;;;;-144.22;100.00;60274.75;7613565;23;20243;-63
2022/08/22 05:05:12;;;;;;;3.20;2.43;;;;;;;-144.22;100.00;60274.75;7593460;23;20236;-63
2022/08/22 05:08:21;;;;;;;4.50;2.47;;;;;;;-144.22;100.00;60274.75;7613459;23;20271;-64
2022/08/22 05:11:24;;;;;;;2.97;2.67;;;;;;;-144.22;100.00;60274.75;7613802;23;20677;-63
2022/08/22 05:14:51;;;;;;;2.53;2.33;;;;;;;-144.22;100.00;60274.75;7613153;23;20355;-64
2022/08/22 05:18:01;;;;;;;3.20;2.47;;;;;;;-144.22;100.00;60274.75;7615234;23;20220;-64
2022/08/22 05:21:06;;;;;;;2.00;1.90;;;;;;;-144.22;100.00;60274.75;7613232;23;20288;-64
2022/08/22 05:24:43;;;;;;;2.20;2.00;;;;;;;-144.22;100.00;60274.75;7613553;23;20207;-64
2022/08/22 05:27:50;;;;;;;2.17;2.07;;;;;;;-144.22;100.00;60274.75;7543198;23;20602;-64
2022/08/22 05:30:58;;;;;;;3.77;1.80;;;;;;;-144.22;100.00;60274.75;7537035;23;20334;-63
2022/08/22 05:34:07;;;;;;;2.53;1.90;;;;;;;-144.22;100.00;60274.75;7538291;23;20213;-64
2022/08/22 05:37:21;;;;;;;1.77;1.67;;;;;;;-144.22;100.00;60274.75;7536895;23;20762;-64
2022/08/22 05:40:26;;;;;;;2.40;1.30;;;;;;;-144.22;100.00;60274.75;7537104;23;20554;-64
2022/08/22 05:43:31;;;;;;;1.93;1.67;;;;;;;-144.22;100.00;60274.75;7538194;23;20252;-64
2022/08/22 05:46:48;;;;;;;1.50;1.40;;;;;;;-144.22;100.00;60274.75;7539331;23;20213;-64
2022/08/22 05:50:04;;;;;;;1.67;1.50;;;;;;;-144.22;100.00;60274.75;7539661;23;20289;-64
2022/08/22 05:53:09;;;;;;;1.60;1.50;;;;;;;-144.22;100.00;60274.75;7540122;23;20210;-64
2022/08/22 05:56:14;;;;;;;1.50;1.40;;;;;;;-144.22;100.00;60274.75;7540032;23;20220;-64
2022/08/22 05:59:31;;;;;;;2.23;1.47;;;;;;;-144.22;100.00;60274.75;7541298;23;20209;-63
2022/08/22 06:02:55;;;;;;;1.47;1.37;;;;;;;-144.22;100.00;60274.75;7544117;23;20241;-65
2022/08/22 06:06:02;;;;;;;2.00;1.67;;;;;;;-144.22;100.00;60274.75;7616892;23;20567;-64
2022/08/22 06:09:12;;;;;;;3.10;1.50;;;;;;;-144.22;100.00;60274.75;7615236;23;20200;-64
2022/08/22 06:12:25;;;;;;;1.60;1.50;;;;;;;-144.22;100.00;60274.75;7616541;23;20209;-64
2022/08/22 06:15:43;;;;;;;2.00;1.70;;;;;;;-144.22;100.00;60274.75;7615631;23;20656;-64
2022/08/22 06:18:51;;;;;;;1.70;1.60;;;;;;;-144.22;100.00;60274.75;7614482;23;20331;-64
2022/08/22 06:21:54;;;;;;;3.00;2.07;;;;;;;-144.22;100.00;60274.75;7615197;23;20236;-64
2022/08/22 06:25:06;;;;;;;2.40;2.20;;;;;;;-144.22;100.00;60274.75;7615071;23;20595;-64
2022/08/22 06:28:15;;;;;;;2.57;1.97;;;;;;;-144.22;100.00;60274.75;7614883;23;20594;-65
2022/08/22 06:31:28;;;;;;;2.97;2.30;;;;;;;-144.22;100.00;60274.75;7614918;23;20212;-64
2022/08/22 06:34:37;;;;;;;2.40;2.10;;;;;;;-144.22;100.00;60274.75;7616387;23;20588;-65
2022/08/22 06:37:43;;;;;;;2.47;2.20;;;;;;;-144.22;100.00;60274.75;7589495;23;20260;-64
2022/08/22 06:40:45;;;;;;;5.13;1.83;;;;;;;-144.22;100.00;60274.75;7614137;23;20279;-64
2022/08/22 06:43:53;;;;;;;3.20;2.00;;;;;;;-144.22;100.00;60274.75;7614104;23;20290;-64
2022/08/22 06:46:59;;;;;;;2.10;2.00;;;;;;;-144.22;100.00;60274.75;7614439;23;20672;-64
2022/08/22 06:50:12;;;;;;;3.60;2.57;;;;;;;-144.22;100.00;60274.75;7613831;23;20235;-64
2022/08/22 06:53:24;;;;;;;2.10;2.00;;;;;;;-144.22;100.00;60274.75;7613801;23;20209;-63
2022/08/22 06:56:34;;;;;;;2.23;2.10;;;;;;;-144.22;100.00;60274.75;7614566;23;20616;-65
2022/08/22 06:59:38;;;;;;;2.60;2.40;;;;;;;-144.22;100.00;60274.75;7614914;23;20213;-65
2022/08/22 07:02:46;;;;;;;3.70;2.20;;;;;;;-144.22;100.00;60274.75;7618977;23;20223;-64
2022/08/22 07:05:55;;;;;;;3.27;2.70;;;;;;;-144.22;100.00;60274.75;7615548;23;20476;-65
2022/08/22 07:09:00;;;;;;;3.33;2.43;;;;;;;-144.22;100.00;60274.75;7588728;23;20232;-64
2022/08/22 07:12:20;;;;;;;2.43;2.20;;;;;;;-144.22;100.00;60274.75;7612756;23;20208;-64
2022/08/22 07:15:40;;;;;;;2.27;2.07;;;;;;;-144.22;100.00;60274.75;7614767;23;20216;-62
2022/08/22 07:18:48;;;;;;;2.60;2.40;;;;;;;-144.22;100.00;60274.75;7614659;23;20578;-63
2022/08/22 07:21:51;;;;;;;2.33;2.13;;;;;;;-144.22;100.00;60274.75;7614318;23;20208;-64
2022/08/22 07:25:01;;;;;;;2.40;2.10;;;;;;;-144.22;100.00;60274.75;7612675;23;20597;-63
2022/08/22 07:28:23;;;;;;;2.90;2.20;;;;;;;-144.22;100.00;60274.75;7613860;23;20547;-63
2022/08/22 07:31:53;;;;;;;2.50;2.30;;;;;;;-144.22;100.00;60274.75;7615457;23;20211;-63
2022/08/22 07:35:07;;;;;;;2.10;1.90;;;;;;;-144.22;100.00;60274.75;7621440;23;20571;-70
2022/08/22 07:38:26;;;;;;;3.27;1.90;;;;;;;-144.22;100.00;60274.75;7613591;23;20688;-64
2022/08/22 07:41:42;;;;;;;2.67;2.47;;;;;;;-144.22;100.00;60274.75;7613390;23;20301;-69
2022/08/22 07:44:56;;;;;;;2.20;2.00;;;;;;;-144.22;100.00;60274.75;7614116;23;20216;-64
2022/08/22 07:48:20;;;;;;;2.10;2.00;;;;;;;-144.22;100.00;60274.75;7588725;23;20533;-64
2022/08/22 07:51:46;;;;;;;2.20;2.00;;;;;;;-144.22;100.00;60274.75;7613670;23;20719;-64
2022/08/22 07:54:56;;;;;;;2.50;2.30;;;;;;;-144.22;100.00;60274.75;7613778;23;20213;-64
2022/08/22 07:58:03;;;;;;;5.30;4.80;;;;;;;-144.22;100.00;60274.75;7614697;23;20548;-64
2022/08/22 08:01:14;;;;;;;2.83;2.63;;;;;;;-144.22;100.00;60274.75;7615419;23;20240;-63
2022/08/22 08:04:19;;;;;;;2.67;2.47;;;;;;;-144.22;100.00;60274.75;7613151;23;20224;-63
2022/08/22 08:07:28;;;;;;;2.73;2.37;;;;;;;-144.22;100.00;60274.75;7613127;23;20213;-63
2022/08/22 08:10:34;;;;;;;2.53;2.40;;;;;;;-144.22;100.00;60274.75;7588954;23;20264;-63
2022/08/22 08:13:42;;;;;;;2.43;2.23;;;;;;;-144.22;100.00;60274.75;7614501;23;20219;-63
2022/08/22 08:17:00;;;;;;;2.50;2.30;;;;;;;-144.22;100.00;60274.75;7613452;23;20219;-64
2022/08/22 08:20:08;;;;;;;2.60;2.40;;;;;;;-144.22;100.00;60274.75;7613611;23;20216;-63
2022/08/22 08:23:18;;;;;;;2.90;2.10;;;;;;;-144.22;100.00;60274.75;7615175;23;20218;-63
2022/08/22 08:26:34;;;;;;;2.03;1.87;;;;;;;-144.22;100.00;60274.75;7613551;23;20213;-63
2022/08/22 08:29:47;;;;;;;2.13;1.93;;;;;;;-144.22;100.00;60274.75;7613137;23;20303;-63
2022/08/22 08:32:55;;;;;;;2.03;1.83;;;;;;;-144.22;100.00;60274.75;7613324;23;20296;-63
2022/08/22 08:36:38;;;;;;;2.03;1.93;;;;;;;-144.22;100.00;60274.75;7612899;23;20201;-63
2022/08/22 08:39:55;;;;;;;2.10;2.00;;;;;;;-144.22;100.00;60274.75;7613879;23;20279;-63
2022/08/22 08:43:33;;;;;;;1.70;1.60;;;;;;;-144.22;100.00;60274.75;7613605;23;20220;-63
2022/08/22 08:47:02;;;;;;;2.17;1.97;;;;;;;-144.22;100.00;60274.75;7615269;23;20209;-63
2022/08/22 08:50:19;;;;;;;2.70;2.13;;;;;;;-144.22;100.00;60274.75;7614551;23;20660;-63
2022/08/22 08:53:59;;;;;;;1.73;1.63;;;;;;;-144.22;100.00;60274.75;7614228;23;20209;-63
2022/08/22 08:57:17;;;;;;;2.07;1.77;;;;;;;-144.22;100.00;60274.75;7613738;23;20213;-63
2022/08/22 09:00:30;;;;;;;1.77;1.57;;;;;;;-144.22;100.00;60274.75;7612791;23;20692;-64
2022/08/22 09:03:55;;;;;;;1.90;1.80;;;;;;;-144.22;100.00;60274.75;7612620;23;20327;-64
2022/08/22 09:06:59;;;;;;;3.00;2.10;;;;;;;-144.22;100.00;60274.75;7615350;23;20601;-63
2022/08/22 09:10:27;;;;;;;2.23;1.90;;;;;;;-144.22;100.00;60274.75;7613251;23;20209;-63
2022/08/22 09:13:47;;;;;;;3.40;3.10;;;;;;;-144.22;100.00;60274.75;7612712;23;20208;-63
2022/08/22 09:17:15;;;;;;;1.70;1.60;;;;;;;-144.22;100.00;60274.75;7615897;23;20735;-62
2022/08/22 09:20:59;;;;;;;1.90;1.57;;;;;;;-144.22;100.00;60274.75;7613914;23;20204;-63
2022/08/22 09:24:30;;;;;;;1.67;1.57;;;;;;;-144.22;100.00;60274.75;7614522;23;20213;-63
2022/08/22 09:27:42;;;;;;;2.00;1.90;;;;;;;-144.22;100.00;60274.75;7615520;23;20200;-63
2022/08/22 09:31:03;;;;;;;2.10;1.90;;;;;;;-144.22;100.00;60274.75;7615208;23;20209;-63
2022/08/22 09:34:31;;;;;;;1.10;1.10;;;;;;;-144.22;100.00;60274.75;7616559;23;20212;-64
2022/08/22 09:37:46;;;;;;;1.40;1.30;;;;;;;-144.22;100.00;60274.75;7615796;23;20816;-63
2022/08/22 09:41:28;;;;;;;0.90;0.90;;;;;;;-144.22;100.00;60274.75;7615650;23;20258;-63
2022/08/22 09:44:46;;;;;;;0.93;0.93;;;;;;;-144.22;100.00;60274.75;7617146;23;20604;-64
2022/08/22 09:48:00;;;;;;;1.03;1.03;;;;;;;-144.22;100.00;60274.75;7614992;23;20208;-63
2022/08/22 09:51:27;;;;;;;3.80;1.20;;;;;;;-144.22;100.00;60274.75;7618981;23;20204;-63
2022/08/22 09:54:44;;;;;;;1.40;1.30;;;;;;;-144.22;100.00;60274.75;7614096;23;20283;-64
2022/08/22 09:57:53;;;;;;;2.63;1.50;;;;;;;-144.22;100.00;60274.75;7612371;23;20263;-63
2022/08/22 10:01:09;;;;;;;1.20;1.20;;;;;;;-144.22;100.00;60274.75;7615082;23;20217;-64
2022/08/22 10:04:34;;;;;;;1.30;1.20;;;;;;;-144.22;100.00;60274.75;7609610;23;20217;-63
2022/08/22 10:07:54;;;;;;;3.23;1.40;;;;;;;-144.22;100.00;60274.75;7614819;23;20682;-64
2022/08/22 10:11:06;;;;;;;1.10;1.00;;;;;;;-144.22;100.00;60274.75;7615868;23;20213;-63
2022/08/22 10:14:16;;;;;;;1.20;1.10;;;;;;;-144.22;100.00;60274.75;7616440;23;20688;-64
2022/08/22 10:17:31;;;;;;;0.90;0.90;;;;;;;-144.22;100.00;60274.75;7616047;23;20209;-63
2022/08/22 10:21:00;;;;;;;1.00;0.80;;;;;;;-144.22;100.00;60274.75;7616325;23;20213;-63
2022/08/22 10:24:22;;;;;;;2.57;2.30;;;;;;;-144.22;100.00;60274.75;7614898;23;20422;-65
2022/08/22 10:28:07;;;;;;;1.80;1.60;;;;;;;-144.22;100.00;60274.75;7615360;23;20246;-64
2022/08/22 10:31:36;;;;;;;1.20;1.20;;;;;;;-144.22;100.00;60274.75;7614377;23;20255;-63
2022/08/22 10:35:12;;;;;;;1.03;0.93;;;;;;;-144.22;100.00;60274.75;7615051;23;20676;-63
2022/08/22 10:38:31;;;;;;;1.63;1.40;;;;;;;-144.22;100.00;60274.75;7615465;23;20236;-63
2022/08/22 10:42:15;;;;;;;1.20;1.20;;;;;;;-144.22;100.00;60274.75;7615564;23;20208;-63
2022/08/22 10:45:38;;;;;;;1.97;1.70;;;;;;;-144.22;100.00;60274.75;7614827;23;20625;-62
2022/08/22 10:48:49;;;;;;;1.10;1.07;;;;;;;-144.22;100.00;60274.75;7590747;23;20519;-63
2022/08/22 10:51:59;;;;;;;0.90;0.90;;;;;;;-144.22;100.00;60274.75;7614352;23;20703;-63
2022/08/22 10:55:24;;;;;;;1.00;0.70;;;;;;;-144.22;100.00;60274.75;7614987;23;20213;-63
2022/08/22 10:58:33;;;;;;;6.37;4.07;;;;;;;-144.22;100.00;60274.75;7613651;23;20217;-63
2022/08/22 11:01:54;;;;;;;1.30;1.20;;;;;;;-144.22;100.00;60274.75;7614974;23;20673;-63
2022/08/22 11:05:22;;;;;;;1.67;1.30;;;;;;;-144.22;100.00;60274.75;7614230;23;20559;-63
2022/08/22 11:08:46;;;;;;;1.30;1.20;;;;;;;-144.22;100.00;60274.75;7613773;23;20205;-62
2022/08/22 11:12:27;;;;;;;1.17;1.07;;;;;;;-144.22;100.00;60274.75;7619234;23;20216;-62
2022/08/22 11:16:06;;;;;;;1.07;0.80;;;;;;;-144.22;100.00;60274.75;7605237;23;20212;-63
2022/08/22 11:19:18;;;;;;;0.60;0.60;;;;;;;-144.22;100.00;60274.75;7614830;23;20208;-63
2022/08/22 11:22:43;;;;;;;1.57;1.43;;;;;;;-144.22;100.00;60274.75;7615401;23;20208;-64
2022/08/22 11:26:13;;;;;;;0.80;0.80;;;;;;;-144.22;100.00;60274.75;7614512;23;20213;-64
2022/08/22 11:29:47;;;;;;;1.07;1.00;;;;;;;-144.22;100.00;60274.75;7613988;23;20216;-64
2022/08/22 11:33:22;;;;;;;1.27;0.80;;;;;;;-144.22;100.00;60274.75;7615387;23;20209;-64
2022/08/22 11:37:07;;;;;;;2.20;1.27;;;;;;;-144.22;100.00;60274.75;7614143;23;20213;-64
2022/08/22 11:40:27;;;;;;;0.97;0.90;;;;;;;-144.22;100.00;60274.75;7615734;23;20218;-64
2022/08/22 11:43:55;;;;;;;1.23;1.13;;;;;;;-144.22;100.00;60274.75;7613549;23;20209;-67
2022/08/22 11:47:00;;;;;;;1.73;1.07;;;;;;;-144.22;100.00;60274.75;7615415;23;20238;-62
2022/08/22 11:50:38;;;;;;;0.77;0.77;;;;;;;-144.22;100.00;60274.75;7613193;23;20296;-62
2022/08/22 11:53:52;;;;;;;0.63;0.63;;;;;;;-144.22;100.00;60274.75;7611610;23;20208;-63
2022/08/22 11:57:22;;;;;;;1.97;0.90;;;;;;;-144.22;100.00;60274.75;7614365;23;20658;-63
2022/08/22 12:00:52;;;;;;;0.50;0.50;;;;;;;-144.22;100.00;60274.75;7613752;23;20554;-63
2022/08/22 12:04:14;;;;;;;1.00;1.00;;;;;;;-144.22;100.00;60274.75;7612644;23;20223;-63
2022/08/22 12:07:32;;;;;;;1.33;0.80;;;;;;;-144.22;100.00;60274.75;7621000;23;20754;-62
2022/08/22 12:10:41;;;;;;;0.80;0.70;;;;;;;-144.22;100.00;60274.75;7614251;23;20266;-67
2022/08/22 12:13:53;;;;;;;0.57;0.50;;;;;;;-144.22;100.00;60274.75;7614070;23;20223;-65
2022/08/22 12:17:32;;;;;;;1.87;0.60;;;;;;;-144.22;100.00;60274.75;7613983;23;20647;-63
2022/08/22 12:21:04;;;;;;;0.50;0.50;;;;;;;-144.22;100.00;60274.75;7611655;23;20232;-63
2022/08/22 12:24:12;;;;;;;4.47;3.30;;;;;;;-144.22;100.00;60274.75;7612986;23;20207;-64
2022/08/22 12:27:45;;;;;;;4.90;4.20;;;;;;;-144.22;100.00;60274.75;7612969;23;20205;-65
2022/08/22 12:31:02;;;;;;;0.90;0.90;;;;;;;-144.22;100.00;60274.75;7612710;23;20296;-64
2022/08/22 12:34:43;;;;;;;0.77;0.67;;;;;;;-144.22;100.00;60274.75;7613741;23;20668;-64
2022/08/22 12:38:01;;;;;;;1.37;0.73;;;;;;;-144.22;100.00;60274.75;7613577;23;20296;-64
2022/08/22 12:42:00;;;;;;;1.17;0.70;;;;;;;-144.22;100.00;60274.75;7612617;23;20260;-64
2022/08/22 12:45:43;;;;;;;0.40;0.40;;;;;;;-144.22;100.00;60274.75;7612280;23;20560;-64
2022/08/22 12:49:02;;;;;;;0.50;0.47;;;;;;;-144.22;100.00;60274.75;7397598;23;20224;-63
2022/08/22 12:52:11;;;;;;;1.87;1.00;;;;;;;-144.22;100.00;60274.75;7414059;23;20221;-64
2022/08/22 12:55:20;;;;;;;1.87;0.90;;;;;;;-144.22;100.00;60274.75;7614112;23;20216;-64
2022/08/22 12:58:44;;;;;;;1.03;0.97;;;;;;;-144.22;100.00;60274.75;7613383;23;20277;-64
2022/08/22 13:02:20;;;;;;;1.90;1.20;;;;;;;-144.22;100.00;60274.75;7614073;23;20219;-64
2022/08/22 13:05:29;;;;;;;1.23;1.00;;;;;;;-144.22;100.00;60274.75;7537556;23;20599;-64
2022/08/22 13:08:44;;;;;;;0.97;0.93;;;;;;;-144.22;100.00;60274.75;7540524;23;20214;-65
2022/08/22 13:11:52;;;;;;;1.20;0.70;;;;;;;-144.22;100.00;60274.75;7541788;23;20222;-64
2022/08/22 13:15:25;;;;;;;2.90;1.20;;;;;;;-144.22;100.00;60274.75;7541311;23;20214;-65
2022/08/22 13:18:37;;;;;;;0.90;0.90;;;;;;;-144.22;100.00;60274.75;7541937;23;20320;-65
2022/08/22 13:21:52;;;;;;;1.27;1.00;;;;;;;-144.22;100.00;60274.75;7539764;23;20236;-65
2022/08/22 13:25:04;;;;;;;1.10;1.10;;;;;;;-144.22;100.00;60274.75;7542349;23;20205;-65
2022/08/22 13:28:11;;;;;;;1.20;1.10;;;;;;;-144.22;100.00;60274.75;7539142;23;20508;-65
2022/08/22 13:31:29;;;;;;;1.40;1.30;;;;;;;-144.22;100.00;60274.75;7541428;23;20225;-65
2022/08/22 13:34:50;;;;;;;1.17;1.00;;;;;;;-144.22;100.00;60274.75;7541006;23;20214;-64
2022/08/22 13:38:01;;;;;;;1.47;1.20;;;;;;;-144.22;100.00;60274.75;7541420;23;20663;-65
2022/08/22 13:41:06;;;;;;;1.33;1.17;;;;;;;-144.22;100.00;60274.75;7539898;23;20543;-65
2022/08/22 13:44:08;;;;;;;1.70;1.20;;;;;;;-144.22;100.00;60274.75;7547199;23;20221;-65
2022/08/22 13:47:19;;;;;;;2.10;1.17;;;;;;;-144.22;100.00;60274.75;7541209;23;20273;-66
2022/08/22 13:50:27;;;;;;;1.60;1.00;;;;;;;-144.22;100.00;60274.75;7540361;23;20217;-65
2022/08/22 13:53:54;;;;;;;1.87;1.40;;;;;;;-144.22;100.00;60274.75;7542019;23;20210;-65
2022/08/22 13:57:33;;;;;;;2.83;0.93;;;;;;;-144.22;100.00;60274.75;7540603;23;20229;-65
2022/08/22 14:00:58;;;;;;;1.20;1.10;;;;;;;-144.22;100.00;60274.75;7539324;23;20584;-64
2022/08/22 14:04:13;;;;;;;2.57;1.00;;;;;;;-144.22;100.00;60274.75;7581663;23;20279;-65
2022/08/22 14:07:51;;;;;;;2.40;1.10;;;;;;;-144.22;100.00;60274.75;7616932;23;20669;-66
2022/08/22 14:11:16;;;;;;;1.93;1.20;;;;;;;-144.22;100.00;60274.75;7614889;23;20241;-66
2022/08/22 14:14:33;;;;;;;1.90;1.20;;;;;;;-144.22;100.00;60274.75;7616416;23;20220;-66
2022/08/22 14:17:43;;;;;;;1.20;1.10;;;;;;;-144.22;100.00;60274.75;7616848;23;20209;-66
2022/08/22 14:20:50;;;;;;;1.17;1.07;;;;;;;-144.22;100.00;60274.75;7566074;23;20217;-66
2022/08/22 14:24:02;;;;;;;2.40;1.30;;;;;;;-144.22;100.00;60274.75;7614375;23;20208;-66
2022/08/22 14:27:13;;;;;;;1.43;1.33;;;;;;;-144.22;100.00;60274.75;7586251;23;20249;-64
2022/08/22 14:30:22;;;;;;;1.47;1.23;;;;;;;-144.22;100.00;60274.75;7615197;23;20184;-65
2022/08/22 14:33:37;;;;;;;1.33;1.00;;;;;;;-144.22;100.00;60274.75;7615553;23;20220;-65
2022/08/22 14:36:53;;;;;;;1.40;1.30;;;;;;;-144.22;100.00;60274.75;7613523;23;20213;-65
2022/08/22 14:40:06;;;;;;;2.00;1.47;;;;;;;-144.22;100.00;60274.75;7615263;23;20219;-66
2022/08/22 14:43:22;;;;;;;1.20;1.03;;;;;;;-144.22;100.00;60274.75;7590063;23;20212;-65
2022/08/22 14:46:32;;;;;;;1.87;1.40;;;;;;;-144.22;100.00;60274.75;7615243;23;20220;-65
2022/08/22 14:49:50;;;;;;;1.27;1.13;;;;;;;-144.22;100.00;60274.75;7614879;23;20662;-62
2022/08/22 14:53:21;;;;;;;1.30;1.20;;;;;;;-144.22;100.00;60274.75;7613641;23;20213;-62
2022/08/22 14:56:28;;;;;;;2.27;1.37;;;;;;;-144.22;100.00;60274.75;7613740;23;20669;-62
2022/08/22 14:59:42;;;;;;;2.67;1.20;;;;;;;-144.22;100.00;60274.75;7615031;23;20213;-65
2022/08/22 15:02:45;;;;;;;1.20;1.10;;;;;;;-144.22;100.00;60274.75;7614810;23;20223;-65
2022/08/22 15:05:52;;;;;;;1.00;1.00;;;;;;;-144.22;100.00;60274.75;7612931;23;20331;-65